Time;durP1;ratioP1;P1;durP2;ratioP2;P2;SDS_P1;SDS_P2;PMS_P1;PMS_P2;Temp;Humidity;BMP_temperature;BMP_pressure;BME280_temperature;BME280_humidity;BME280_pressure;Samples;Min_cycle;Max_cycle;Signal;HPM_P1;HPM_P2
2023/06/10 00:00:12;;;;;;;8.55;6.55;;;22.30;52.60;;;;;;4980937;28;20082;-87
2023/06/10 00:02:42;;;;;;;10.05;6.57;;;22.30;52.70;;;;;;4982023;28;20126;-87
2023/06/10 00:05:16;;;;;;;;;;;22.30;52.80;;;;;;4981999;28;20488;-88
2023/06/10 00:07:49;;;;;;;11.15;6.07;;;22.20;53.10;;;;;;4978298;28;20284;-86
2023/06/10 00:10:16;;;;;;;7.38;5.75;;;22.10;52.30;;;;;;4985480;28;20041;-86
2023/06/10 00:12:43;;;;;;;8.93;6.30;;;22.10;52.50;;;;;;4984742;28;20486;-88
2023/06/10 00:15:09;;;;;;;8.10;6.10;;;22.00;52.40;;;;;;4964598;28;20041;-87
2023/06/10 00:17:38;;;;;;;9.93;6.18;;;22.00;52.50;;;;;;4980798;28;20037;-88
2023/06/10 00:20:11;;;;;;;8.82;6.05;;;21.90;52.50;;;;;;4983828;28;20026;-87
2023/06/10 00:22:45;;;;;;;9.35;6.10;;;21.90;52.60;;;;;;4979868;28;20051;-86
2023/06/10 00:25:11;;;;;;;9.60;6.30;;;21.80;52.50;;;;;;4980824;28;20061;-86
2023/06/10 00:27:37;;;;;;;9.77;6.35;;;21.80;52.60;;;;;;4981589;28;20039;-87
2023/06/10 00:30:06;;;;;;;8.48;5.78;;;21.70;52.50;;;;;;4978845;28;20061;-86
2023/06/10 00:32:33;;;;;;;7.47;6.30;;;21.70;52.60;;;;;;4983036;28;20501;-90
2023/06/10 00:35:03;;;;;;;7.95;6.15;;;21.60;52.60;;;;;;4982714;28;20045;-88
2023/06/10 00:37:32;;;;;;;7.78;5.75;;;21.60;52.60;;;;;;4980835;28;20049;-86
2023/06/10 00:40:02;;;;;;;9.50;7.00;;;21.60;52.80;;;;;;4984418;28;20100;-88
2023/06/10 00:42:28;;;;;;;10.90;6.78;;;21.50;52.70;;;;;;4994083;28;20085;-87
2023/06/10 00:44:55;;;;;;;8.95;6.15;;;21.40;52.60;;;;;;4988248;28;20260;-88
2023/06/10 00:47:22;;;;;;;10.85;6.72;;;21.40;52.70;;;;;;4967803;28;20065;-89
2023/06/10 00:49:50;;;;;;;10.20;6.75;;;21.40;52.80;;;;;;4984618;28;20030;-89
2023/06/10 00:52:18;;;;;;;8.13;5.93;;;21.30;52.70;;;;;;4974825;28;20034;-89
2023/06/10 00:54:47;;;;;;;8.30;6.22;;;21.20;52.60;;;;;;4992001;28;20048;-88
2023/06/10 00:57:15;;;;;;;10.45;6.40;;;21.20;52.70;;;;;;4978116;28;20042;-87
2023/06/10 00:59:48;;;;;;;8.85;6.32;;;21.20;52.80;;;;;;4981072;28;20031;-87
2023/06/10 01:02:14;;;;;;;9.80;6.82;;;21.10;52.80;;;;;;4971179;28;20070;-86
2023/06/10 01:04:41;;;;;;;8.70;5.95;;;21.10;52.90;;;;;;4981186;28;20030;-88
2023/06/10 01:07:30;;;;;;;13.65;7.10;;;21.00;52.80;;;;;;4980700;28;20070;-88
2023/06/10 01:10:18;;;;;;;8.65;6.13;;;20.90;52.70;;;;;;4985281;28;20069;-86
2023/06/10 01:13:02;;;;;;;10.38;5.93;;;20.90;52.90;;;;;;4977969;28;20038;-88
2023/06/10 01:15:34;;;;;;;8.02;6.68;;;20.80;52.80;;;;;;4975691;28;20121;-88
2023/06/10 01:18:02;;;;;;;10.20;6.38;;;20.80;52.80;;;;;;4976554;28;20035;-89
2023/06/10 01:20:32;;;;;;;6.28;5.65;;;20.70;52.70;;;;;;4971780;28;20065;-88
2023/06/10 01:22:59;;;;;;;9.40;6.45;;;20.70;52.80;;;;;;4989606;28;20115;-89
2023/06/10 01:25:28;;;;;;;8.38;6.10;;;20.60;52.70;;;;;;4978540;28;20393;-88
2023/06/10 01:28:15;;;;;;;9.30;6.28;;;20.60;52.80;;;;;;4998654;28;20042;-88
2023/06/10 01:30:48;;;;;;;8.00;6.18;;;20.60;53.00;;;;;;4990733;28;20205;-88
2023/06/10 01:33:39;;;;;;;9.43;7.75;;;20.50;52.80;;;;;;4987892;28;20042;-88
2023/06/10 01:36:08;;;;;;;9.80;6.15;;;20.50;52.90;;;;;;4966224;28;20034;-89
2023/06/10 01:38:44;;;;;;;14.27;8.30;;;20.50;52.90;;;;;;4990355;28;20541;-88
2023/06/10 01:41:13;;;;;;;7.53;6.68;;;20.40;52.80;;;;;;4983831;28;20042;-88
2023/06/10 01:43:45;;;;;;;9.32;6.65;;;20.40;52.90;;;;;;4982806;28;20116;-88
2023/06/10 01:46:19;;;;;;;9.32;5.80;;;20.30;52.70;;;;;;4982588;28;20109;-86
2023/06/10 01:48:46;;;;;;;10.35;6.53;;;20.30;52.90;;;;;;4988582;28;20516;-87
2023/06/10 01:51:13;;;;;;;10.07;6.75;;;20.30;52.90;;;;;;4981334;28;20046;-84
2023/06/10 01:53:45;;;;;;;8.90;6.63;;;20.20;52.90;;;;;;4985576;28;20074;-89
2023/06/10 01:56:19;;;;;;;10.75;6.00;;;20.20;52.90;;;;;;4984885;28;20114;-88
2023/06/10 01:58:58;;;;;;;9.20;6.22;;;20.20;53.00;;;;;;4986150;28;20165;-88
2023/06/10 02:01:25;;;;;;;8.98;6.63;;;20.10;52.80;;;;;;4988800;28;20457;-88
2023/06/10 02:03:52;;;;;;;9.00;6.57;;;20.10;53.00;;;;;;4982934;28;20398;-88
2023/06/10 02:06:18;;;;;;;8.77;6.45;;;20.00;52.90;;;;;;4988206;28;20081;-87
2023/06/10 02:08:45;;;;;;;9.68;6.43;;;20.00;53.00;;;;;;4975860;28;20545;-86
2023/06/10 02:11:31;;;;;;;10.77;6.60;;;19.90;52.90;;;;;;4989908;28;20382;-88
2023/06/10 02:14:00;;;;;;;8.80;6.07;;;19.90;53.00;;;;;;4985677;28;20050;-87
2023/06/10 02:16:27;;;;;;;7.93;6.43;;;19.90;53.10;;;;;;4989378;28;20042;-83
2023/06/10 02:18:58;;;;;;;8.77;6.60;;;19.80;53.00;;;;;;4979196;28;20038;-85
2023/06/10 02:21:24;;;;;;;8.23;6.28;;;19.80;53.10;;;;;;4986277;28;20076;-84
2023/06/10 02:23:57;;;;;;;9.45;6.32;;;19.70;53.00;;;;;;4988438;28;20042;-83
2023/06/10 02:26:25;;;;;;;9.40;6.75;;;19.70;53.00;;;;;;4989097;28;20029;-86
2023/06/10 02:28:55;;;;;;;11.23;7.20;;;19.70;53.10;;;;;;4970099;28;20423;-84
2023/06/10 02:31:25;;;;;;;8.85;6.55;;;19.70;53.20;;;;;;4986606;28;20030;-82
2023/06/10 02:33:55;;;;;;;7.75;5.97;;;19.60;53.10;;;;;;4971635;28;20141;-82
2023/06/10 02:36:31;;;;;;;10.18;6.93;;;19.60;53.20;;;;;;4998236;28;20448;-83
2023/06/10 02:39:03;;;;;;;8.43;6.70;;;19.60;53.20;;;;;;4988545;28;20054;-84
2023/06/10 02:41:29;;;;;;;10.80;6.63;;;19.60;53.30;;;;;;4986595;28;20037;-84
2023/06/10 02:43:56;;;;;;;11.15;7.15;;;19.60;53.30;;;;;;4985860;28;20719;-83
2023/06/10 02:46:23;;;;;;;11.23;5.95;;;19.50;53.20;;;;;;4971127;28;20088;-85
2023/06/10 02:48:58;;;;;;;10.25;7.18;;;19.50;53.20;;;;;;4986769;28;20035;-86
2023/06/10 02:51:25;;;;;;;9.93;6.85;;;19.40;53.10;;;;;;4963610;28;20039;-87
2023/06/10 02:53:57;;;;;;;7.35;5.88;;;19.50;53.30;;;;;;4988066;28;20061;-88
2023/06/10 02:56:31;;;;;;;8.65;6.32;;;19.50;53.30;;;;;;4991298;28;20033;-88
2023/06/10 02:59:00;;;;;;;9.23;6.45;;;19.50;53.30;;;;;;4987125;28;20042;-88
2023/06/10 03:01:27;;;;;;;9.05;6.90;;;19.50;53.40;;;;;;4988240;28;20481;-87
2023/06/10 03:04:00;;;;;;;8.90;7.00;;;19.40;53.20;;;;;;4994310;28;20382;-86
2023/06/10 03:06:29;;;;;;;7.82;6.55;;;19.40;53.30;;;;;;4972505;28;20057;-87
2023/06/10 03:09:07;;;;;;;9.57;6.80;;;19.40;53.30;;;;;;4991895;28;20077;-89
2023/06/10 03:11:37;;;;;;;11.20;6.35;;;19.40;53.30;;;;;;4992776;28;20042;-87
2023/06/10 03:14:06;;;;;;;10.93;8.50;;;19.40;53.40;;;;;;4986164;28;20522;-86
2023/06/10 03:16:42;;;;;;;12.45;8.13;;;19.30;53.20;;;;;;4985525;28;20034;-86
2023/06/10 03:19:09;;;;;;;10.77;7.13;;;19.30;53.30;;;;;;4982718;28;20043;-87
2023/06/10 03:21:44;;;;;;;11.43;7.55;;;19.30;53.40;;;;;;4986823;28;20066;-87
2023/06/10 03:24:13;;;;;;;9.98;7.47;;;19.30;53.40;;;;;;4982955;28;20113;-88
2023/06/10 03:26:40;;;;;;;13.82;8.13;;;19.30;53.50;;;;;;4986360;28;20038;-87
2023/06/10 03:29:13;;;;;;;10.88;7.85;;;19.30;53.50;;;;;;4998095;28;20034;-88
2023/06/10 03:31:46;;;;;;;10.10;7.85;;;19.20;53.40;;;;;;5001032;28;20116;-90
2023/06/10 03:34:12;;;;;;;10.07;7.22;;;19.20;54.00;;;;;;5003173;28;20413;-89
2023/06/10 03:36:42;;;;;;;10.85;8.05;;;19.20;53.40;;;;;;4984392;28;20054;-85
2023/06/10 03:39:10;;;;;;;12.10;8.32;;;19.20;53.50;;;;;;4983067;28;20039;-86
2023/06/10 03:41:45;;;;;;;9.75;8.02;;;19.20;53.50;;;;;;4980314;28;20107;-86
2023/06/10 03:44:16;;;;;;;14.20;10.07;;;19.20;53.50;;;;;;4976086;28;20047;-85
2023/06/10 03:46:45;;;;;;;8.93;7.80;;;19.20;53.50;;;;;;4981014;28;20473;-90
2023/06/10 03:49:12;;;;;;;10.13;8.98;;;19.20;53.60;;;;;;4970155;28;20038;-88
2023/06/10 03:51:38;;;;;;;9.52;8.63;;;19.10;53.40;;;;;;4975466;28;20049;-87
2023/06/10 03:54:05;;;;;;;15.15;10.38;;;19.20;53.70;;;;;;4984891;28;20039;-87
2023/06/10 03:56:32;;;;;;;11.15;7.82;;;19.20;53.70;;;;;;4976700;28;20038;-86
2023/06/10 03:58:59;;;;;;;10.68;8.98;;;19.10;53.60;;;;;;4983883;28;20053;-86
2023/06/10 04:01:24;;;;;;;9.82;8.75;;;19.10;53.60;;;;;;4992670;28;20092;-86
2023/06/10 04:03:53;;;;;;;12.48;9.38;;;19.10;53.60;;;;;;4986481;28;20105;-87
2023/06/10 04:06:22;;;;;;;11.00;8.90;;;19.10;53.70;;;;;;4980691;28;20041;-88
2023/06/10 04:08:48;;;;;;;9.95;8.90;;;19.10;53.70;;;;;;4990670;28;20049;-89
2023/06/10 04:11:20;;;;;;;11.23;8.57;;;19.10;53.70;;;;;;4992788;28;20022;-88
2023/06/10 04:13:51;;;;;;;18.83;10.25;;;19.00;53.60;;;;;;4983655;28;20046;-87
2023/06/10 04:16:18;;;;;;;10.00;8.60;;;19.10;53.80;;;;;;4997264;28;20042;-87
2023/06/10 04:18:44;;;;;;;12.70;9.63;;;19.00;53.60;;;;;;4948495;28;20053;-85
2023/06/10 04:21:12;;;;;;;11.23;8.60;;;19.00;53.70;;;;;;4984974;28;20038;-87
2023/06/10 04:23:43;;;;;;;12.95;9.23;;;19.00;53.70;;;;;;4985136;28;20076;-87
2023/06/10 04:26:13;;;;;;;11.20;10.00;;;19.00;53.70;;;;;;4981686;28;20039;-88
2023/06/10 04:28:39;;;;;;;16.70;10.38;;;19.00;53.80;;;;;;4982507;28;20038;-88
2023/06/10 04:31:05;;;;;;;12.02;9.52;;;19.00;53.80;;;;;;4969055;28;20472;-85
2023/06/10 04:33:34;;;;;;;17.52;11.20;;;19.00;53.90;;;;;;4985477;28;20514;-85
2023/06/10 04:36:06;;;;;;;13.20;9.43;;;19.10;54.10;;;;;;4984243;28;20498;-86
2023/06/10 04:38:33;;;;;;;14.13;9.02;;;19.00;53.90;;;;;;4986002;28;20569;-84
2023/06/10 04:41:00;;;;;;;15.50;9.90;;;19.10;54.10;;;;;;4984679;28;20068;-86
2023/06/10 04:43:30;;;;;;;12.05;9.73;;;19.10;54.60;;;;;;4984845;28;20035;-86
2023/06/10 04:46:07;;;;;;;13.68;9.63;;;19.10;54.10;;;;;;4985431;28;20086;-87
2023/06/10 04:48:37;;;;;;;14.13;10.75;;;19.10;54.00;;;;;;4979762;28;20042;-86
2023/06/10 04:51:13;;;;;;;15.45;9.93;;;19.10;54.00;;;;;;4996728;28;20996;-84
2023/06/10 04:53:40;;;;;;;13.10;10.00;;;19.10;53.90;;;;;;4986883;28;20044;-84
2023/06/10 04:56:07;;;;;;;17.20;10.52;;;19.20;54.10;;;;;;4991875;28;20042;-84
2023/06/10 04:58:39;;;;;;;14.30;10.38;;;19.20;54.10;;;;;;4990120;28;20045;-91
2023/06/10 05:01:11;;;;;;;13.02;10.45;;;19.20;54.10;;;;;;4979807;28;20050;-90
2023/06/10 05:03:43;;;;;;;13.32;11.30;;;19.20;54.00;;;;;;4986412;28;20041;-87
2023/06/10 05:06:09;;;;;;;14.23;10.30;;;19.30;54.10;;;;;;4979531;28;20441;-84
2023/06/10 05:08:38;;;;;;;13.50;10.88;;;19.40;54.30;;;;;;4985045;28;20042;-88
2023/06/10 05:11:04;;;;;;;11.75;10.48;;;19.40;54.20;;;;;;4979623;28;20210;-89
2023/06/10 05:13:31;;;;;;;14.00;9.73;;;19.40;54.10;;;;;;4988628;28;20084;-90
2023/06/10 05:16:00;;;;;;;17.05;10.73;;;19.50;54.90;;;;;;4976010;28;20030;-86
2023/06/10 05:18:29;;;;;;;14.23;10.35;;;19.50;54.20;;;;;;4974761;28;20494;-88
2023/06/10 05:20:55;;;;;;;15.93;11.15;;;19.50;54.20;;;;;;4977576;28;20227;-88
2023/06/10 05:23:23;;;;;;;16.40;10.32;;;19.50;54.20;;;;;;4974803;28;20041;-87
2023/06/10 05:25:52;;;;;;;15.45;10.45;;;19.50;54.10;;;;;;4969710;28;20045;-85
2023/06/10 05:28:19;;;;;;;15.13;11.65;;;19.60;54.30;;;;;;4979992;28;20491;-87
2023/06/10 05:30:48;;;;;;;15.02;10.02;;;19.60;54.20;;;;;;4966879;28;20038;-87
2023/06/10 05:33:14;;;;;;;16.15;10.75;;;19.70;54.30;;;;;;4980177;28;20038;-88
2023/06/10 05:35:40;;;;;;;15.07;11.13;;;19.70;54.20;;;;;;4978021;28;20026;-89
2023/06/10 05:38:06;;;;;;;13.20;10.25;;;19.80;54.30;;;;;;4969904;28;20044;-86
2023/06/10 05:40:35;;;;;;;12.52;10.45;;;19.80;54.30;;;;;;4972128;28;20049;-88
2023/06/10 05:43:04;;;;;;;12.05;10.38;;;19.80;54.20;;;;;;4998182;28;20112;-88
2023/06/10 05:45:30;;;;;;;15.70;11.02;;;19.90;54.30;;;;;;4973089;28;20140;-83
2023/06/10 05:47:56;;;;;;;14.43;10.93;;;19.90;54.20;;;;;;4973234;28;20065;-84
2023/06/10 05:50:24;;;;;;;12.68;9.63;;;19.90;54.20;;;;;;4978228;28;20038;-86
2023/06/10 05:52:52;;;;;;;15.75;11.23;;;20.00;54.40;;;;;;4989746;28;20038;-84
2023/06/10 05:55:21;;;;;;;13.27;10.40;;;20.00;54.40;;;;;;4982741;28;20031;-85
2023/06/10 05:57:47;;;;;;;19.10;11.85;;;20.00;54.30;;;;;;4975777;28;20501;-87
2023/06/10 06:00:19;;;;;;;14.73;10.90;;;20.10;54.40;;;;;;4971307;28;20039;-84
2023/06/10 06:02:45;;;;;;;13.82;11.00;;;20.10;54.20;;;;;;4975658;28;20034;-86
2023/06/10 06:05:14;;;;;;;15.00;10.73;;;20.20;54.30;;;;;;4974780;28;20129;-89
2023/06/10 06:07:40;;;;;;;14.00;10.98;;;20.20;54.20;;;;;;4972212;28;20038;-88
2023/06/10 06:10:07;;;;;;;12.52;10.35;;;20.30;54.30;;;;;;4976790;28;20034;-90
2023/06/10 06:12:33;;;;;;;15.52;10.90;;;20.40;54.30;;;;;;4966788;28;20037;-90
2023/06/10 06:15:06;;;;;;;13.68;10.95;;;20.40;54.30;;;;;;4978207;28;20475;-90
2023/06/10 06:17:41;;;;;;;13.15;10.60;;;20.50;54.30;;;;;;4980620;28;20554;-90
2023/06/10 06:20:13;;;;;;;12.93;11.18;;;20.50;54.20;;;;;;4982583;28;20060;-92
2023/06/10 06:22:39;;;;;;;15.90;11.00;;;20.60;54.30;;;;;;4979859;28;20041;-94
2023/06/10 06:25:06;;;;;;;16.58;11.32;;;20.70;54.30;;;;;;4983008;28;20033;-91
2023/06/10 06:27:32;;;;;;;13.68;10.57;;;20.70;54.20;;;;;;4983264;28;20219;-94
2023/06/10 06:29:58;;;;;;;15.75;11.13;;;20.80;54.30;;;;;;4983560;28;20047;-91
2023/06/10 06:32:27;;;;;;;16.17;10.35;;;20.80;54.20;;;;;;4980318;28;20057;-86
2023/06/10 06:34:54;;;;;;;14.48;10.75;;;20.80;54.20;;;;;;4957239;28;20057;-88
2023/06/10 06:37:25;;;;;;;15.43;11.33;;;20.90;54.30;;;;;;4977522;28;20038;-88
2023/06/10 06:40:00;;;;;;;13.93;10.48;;;21.00;54.30;;;;;;4974815;28;20831;-87
2023/06/10 06:42:26;;;;;;;15.25;10.98;;;21.10;54.20;;;;;;4978476;28;20045;-88
2023/06/10 06:45:00;;;;;;;16.73;11.00;;;21.30;54.40;;;;;;4963643;28;20125;-88
2023/06/10 06:47:26;;;;;;;14.30;11.25;;;21.40;54.30;;;;;;4979483;28;20073;-90
2023/06/10 06:49:52;;;;;;;15.38;10.75;;;21.60;54.30;;;;;;4979025;28;20483;-82
2023/06/10 06:52:19;;;;;;;16.75;11.32;;;21.80;54.40;;;;;;4987775;28;20038;-86
2023/06/10 06:54:48;;;;;;;15.98;11.43;;;21.90;54.50;;;;;;4972365;28;20077;-86
2023/06/10 06:57:19;;;;;;;15.13;10.82;;;22.00;55.00;;;;;;4980986;28;20448;-82
2023/06/10 06:59:48;;;;;;;18.73;11.43;;;22.20;55.60;;;;;;4990103;28;20049;-85
2023/06/10 07:02:14;;;;;;;16.75;11.23;;;22.40;56.10;;;;;;4975047;28;20031;-89
2023/06/10 07:04:41;;;;;;;16.55;10.90;;;22.60;56.30;;;;;;4981289;28;20054;-86
2023/06/10 07:07:09;;;;;;;14.20;10.30;;;22.80;56.30;;;;;;4992325;28;20034;-90
2023/06/10 07:09:40;;;;;;;15.38;9.93;;;22.90;56.20;;;;;;4965769;28;20101;-90
2023/06/10 07:12:07;;;;;;;15.32;9.77;;;23.10;56.20;;;;;;4989599;28;20038;-91
2023/06/10 07:14:36;;;;;;;16.05;10.10;;;23.20;56.00;;;;;;4977904;28;20252;-91
2023/06/10 07:17:03;;;;;;;12.10;9.25;;;23.40;56.10;;;;;;4979279;28;20205;-87
2023/06/10 07:19:29;;;;;;;15.02;9.82;;;23.50;55.90;;;;;;4984188;28;20066;-91
2023/06/10 07:21:55;;;;;;;16.45;10.00;;;23.70;55.90;;;;;;4967664;28;20286;-88
2023/06/10 07:24:41;;;;;;;13.02;9.57;;;23.90;56.00;;;;;;4941730;28;20050;-87
2023/06/10 07:27:13;;;;;;;18.08;10.15;;;24.10;56.00;;;;;;4971380;28;20035;-88
2023/06/10 07:29:39;;;;;;;15.88;9.80;;;24.50;56.20;;;;;;4993229;28;20568;-89
2023/06/10 07:32:08;;;;;;;13.25;9.60;;;24.70;55.80;;;;;;4977617;28;20030;-91
2023/06/10 07:34:43;;;;;;;13.98;8.88;;;24.90;55.70;;;;;;4973144;28;20226;-93
2023/06/10 07:37:09;;;;;;;20.27;10.48;;;24.90;55.30;;;;;;4993807;28;20113;-93
2023/06/10 07:39:35;;;;;;;10.13;8.75;;;25.00;55.30;;;;;;4987920;28;20044;-93
2023/06/10 07:42:09;;;;;;;13.40;9.15;;;25.10;55.10;;;;;;4980728;28;20482;-93
2023/06/10 07:44:38;;;;;;;9.65;8.55;;;25.10;54.80;;;;;;4984513;28;20088;-93
2023/06/10 07:47:12;;;;;;;12.75;9.20;;;25.10;54.60;;;;;;4987909;28;20096;-94
2023/06/10 07:49:41;;;;;;;9.77;8.00;;;25.20;54.50;;;;;;4990711;28;20062;-93
2023/06/10 07:52:08;;;;;;;12.27;9.25;;;25.20;54.40;;;;;;4969990;28;20050;-94
2023/06/10 07:54:34;;;;;;;12.85;9.55;;;25.30;54.20;;;;;;4995537;28;20072;-95
2023/06/10 07:57:00;;;;;;;17.65;9.07;;;25.40;53.80;;;;;;4990566;28;20034;-93
2023/06/10 07:59:29;;;;;;;11.48;8.20;;;25.70;53.50;;;;;;4994288;28;20077;-94
2023/06/10 08:02:15;;;;;;;11.30;8.30;;;25.90;53.10;;;;;;4987801;28;20034;-91
2023/06/10 08:04:44;;;;;;;10.25;8.13;;;26.00;52.80;;;;;;5011023;28;20026;-91
2023/06/10 08:07:18;;;;;;;10.90;7.47;;;26.00;52.80;;;;;;4989759;28;20031;-86
2023/06/10 08:09:44;;;;;;;9.55;7.63;;;26.10;52.70;;;;;;5008108;28;20050;-91
2023/06/10 08:12:10;;;;;;;11.40;7.88;;;26.20;52.60;;;;;;5004339;28;20091;-93
2023/06/10 08:14:42;;;;;;;10.70;7.63;;;26.40;52.50;;;;;;4990821;28;20061;-93
2023/06/10 08:17:09;;;;;;;10.68;7.15;;;26.60;52.30;;;;;;4994866;28;20038;-88
2023/06/10 08:19:34;;;;;;;12.45;7.75;;;26.70;52.00;;;;;;4983991;28;20141;-89
2023/06/10 08:22:00;;;;;;;12.27;7.53;;;26.80;51.70;;;;;;4986037;28;20044;-88
2023/06/10 08:24:29;;;;;;;10.48;7.72;;;27.00;51.50;;;;;;4978564;28;20080;-92
2023/06/10 08:26:56;;;;;;;11.02;7.28;;;27.10;51.20;;;;;;4977369;28;20046;-87
2023/06/10 08:29:23;;;;;;;9.82;7.05;;;27.30;51.00;;;;;;4963883;28;20074;-89
2023/06/10 08:31:49;;;;;;;10.73;7.55;;;27.40;50.70;;;;;;4985695;28;20042;-89
2023/06/10 08:34:15;;;;;;;10.65;6.97;;;27.50;50.50;;;;;;4988802;28;20092;-92
2023/06/10 08:36:42;;;;;;;9.25;7.05;;;27.70;50.50;;;;;;4987378;28;20434;-92
2023/06/10 08:39:09;;;;;;;8.77;6.75;;;27.80;50.10;;;;;;5000552;28;20058;-95
2023/06/10 08:41:46;;;;;;;12.68;7.70;;;28.00;49.90;;;;;;4985977;28;20065;-96
2023/06/10 08:44:37;;;;;;;11.40;6.82;;;28.20;49.60;;;;;;4985278;28;20088;-95
2023/06/10 08:47:14;;;;;;;8.85;6.80;;;28.40;49.30;;;;;;4971152;28;20054;-93
2023/06/10 08:49:47;;;;;;;10.85;7.25;;;28.70;49.00;;;;;;4991113;28;20038;-96
2023/06/10 08:52:20;;;;;;;12.48;7.38;;;28.80;48.60;;;;;;4978474;28;20041;-94
2023/06/10 08:55:03;;;;;;;10.55;6.85;;;29.00;48.30;;;;;;4976042;28;20073;-94
2023/06/10 08:57:30;;;;;;;12.05;6.57;;;29.10;48.00;;;;;;5001173;28;20038;-94
2023/06/10 08:59:57;;;;;;;10.50;6.47;;;29.30;47.90;;;;;;4991480;28;20052;-96
2023/06/10 09:02:27;;;;;;;8.77;6.35;;;29.40;47.70;;;;;;4972837;28;20713;-92
2023/06/10 09:04:56;;;;;;;;;;;29.50;47.50;;;;;;4962077;28;20292;-85
2023/06/10 09:07:23;;;;;;;9.25;6.22;;;29.60;47.30;;;;;;4978290;28;20298;-85
2023/06/10 09:09:53;;;;;;;10.07;6.68;;;29.80;47.30;;;;;;4976528;28;20481;-85
2023/06/10 09:12:22;;;;;;;11.40;6.95;;;29.90;47.00;;;;;;4980030;28;20042;-89
2023/06/10 09:15:01;;;;;;;11.60;6.85;;;30.00;46.80;;;;;;4980108;28;20505;-91
2023/06/10 09:17:30;;;;;;;11.90;6.13;;;30.10;46.50;;;;;;4970526;28;20088;-87
2023/06/10 09:20:01;;;;;;;5.85;5.20;;;30.20;46.40;;;;;;4978676;28;20481;-90
2023/06/10 09:22:28;;;;;;;11.30;7.65;;;30.40;46.30;;;;;;4980818;28;20041;-82
2023/06/10 09:25:08;;;;;;;10.85;7.43;;;30.40;45.70;;;;;;4972009;28;20074;-85
2023/06/10 09:27:48;;;;;;;12.95;8.07;;;30.40;45.00;;;;;;4967886;28;20473;-85
2023/06/10 09:30:32;;;;;;;14.82;8.85;;;30.30;44.90;;;;;;4993330;28;20064;-85
2023/06/10 09:33:02;;;;;;;12.63;8.35;;;30.00;44.80;;;;;;4982169;28;20100;-88
2023/06/10 09:35:48;;;;;;;11.77;9.15;;;29.70;44.80;;;;;;4974622;28;20066;-89
2023/06/10 09:38:22;;;;;;;12.32;8.90;;;29.50;45.00;;;;;;4969318;28;20125;-88
2023/06/10 09:40:52;;;;;;;15.20;8.80;;;29.40;45.10;;;;;;4979854;28;20500;-91
2023/06/10 09:43:19;;;;;;;15.93;9.60;;;29.40;45.00;;;;;;4980522;28;20046;-91
2023/06/10 09:45:49;;;;;;;12.68;8.75;;;29.50;45.00;;;;;;4973406;28;20505;-91
2023/06/10 09:48:18;;;;;;;13.70;8.93;;;29.50;44.70;;;;;;4973318;28;20549;-91
2023/06/10 09:50:46;;;;;;;14.27;8.82;;;29.60;44.70;;;;;;4969406;28;20027;-87
2023/06/10 09:53:12;;;;;;;15.32;8.10;;;29.50;44.50;;;;;;4976706;28;20702;-90
2023/06/10 09:55:45;;;;;;;17.27;9.10;;;29.60;44.50;;;;;;4975496;28;20038;-90
2023/06/10 09:58:11;;;;;;;14.27;8.50;;;29.50;44.50;;;;;;4999418;28;20114;-89
2023/06/10 10:00:37;;;;;;;10.88;8.15;;;29.50;44.60;;;;;;4979495;28;20532;-94
2023/06/10 10:03:06;;;;;;;18.02;9.00;;;29.50;44.50;;;;;;4975951;28;20427;-85
2023/06/10 10:05:32;;;;;;;13.60;8.23;;;29.60;44.50;;;;;;4974608;28;20038;-86
2023/06/10 10:08:18;;;;;;;9.90;8.40;;;29.60;44.30;;;;;;4946062;28;20069;-87
2023/06/10 10:11:05;;;;;;;12.25;8.45;;;29.60;44.20;;;;;;4922518;28;20184;-86
2023/06/10 10:13:35;;;;;;;12.73;9.05;;;29.60;44.20;;;;;;4979614;28;20057;-87
2023/06/10 10:16:06;;;;;;;15.70;8.45;;;29.60;44.30;;;;;;4979524;28;20042;-89
2023/06/10 10:18:34;;;;;;;7.97;7.13;;;29.60;44.20;;;;;;4988109;28;20057;-93
2023/06/10 10:21:13;;;;;;;11.15;8.25;;;29.60;44.30;;;;;;4973588;28;20031;-89
2023/06/10 10:23:42;;;;;;;15.52;8.32;;;29.70;44.40;;;;;;4976575;28;20189;-89
2023/06/10 10:26:18;;;;;;;12.80;7.82;;;29.70;44.40;;;;;;4980280;28;20767;-85
2023/06/10 10:28:53;;;;;;;17.40;8.43;;;29.80;44.40;;;;;;4978198;28;20042;-90
2023/06/10 10:31:27;;;;;;;13.50;8.38;;;29.80;44.20;;;;;;4977096;28;20202;-85
2023/06/10 10:33:59;;;;;;;14.90;8.43;;;29.90;44.10;;;;;;4976537;28;20031;-85
2023/06/10 10:36:27;;;;;;;12.43;8.77;;;30.00;44.00;;;;;;4975763;28;20129;-84
2023/06/10 10:39:09;;;;;;;10.00;7.78;;;30.00;43.90;;;;;;4981268;28;20516;-87
2023/06/10 10:41:38;;;;;;;13.52;8.13;;;30.10;43.80;;;;;;4975411;28;20125;-87
2023/06/10 10:44:16;;;;;;;20.63;8.43;;;30.20;43.80;;;;;;4987818;28;20453;-89
2023/06/10 10:46:49;;;;;;;15.15;8.05;;;30.20;43.60;;;;;;4980127;28;20112;-88
2023/06/10 10:49:20;;;;;;;10.82;8.27;;;30.20;43.50;;;;;;4979834;28;20493;-88
2023/06/10 10:51:56;;;;;;;13.27;7.95;;;30.20;43.60;;;;;;4965955;28;20131;-91
2023/06/10 10:54:46;;;;;;;12.38;7.53;;;30.20;44.00;;;;;;4982975;28;20038;-88
2023/06/10 10:57:14;;;;;;;14.00;9.00;;;30.20;43.90;;;;;;4973990;28;20034;-91
2023/06/10 10:59:59;;;;;;;15.20;9.00;;;30.40;44.00;;;;;;4973054;28;20155;-88
2023/06/10 11:02:45;;;;;;;13.77;8.38;;;30.60;43.70;;;;;;4993180;28;20038;-90
2023/06/10 11:05:16;;;;;;;13.25;7.68;;;30.80;43.50;;;;;;4981555;28;20165;-91
2023/06/10 11:07:55;;;;;;;14.43;8.30;;;31.00;43.40;;;;;;4987476;28;20104;-95
2023/06/10 11:10:30;;;;;;;11.43;8.52;;;31.10;43.30;;;;;;4982332;28;20043;-92
2023/06/10 11:13:00;;;;;;;15.57;8.00;;;31.20;43.10;;;;;;4982685;28;20137;-91
2023/06/10 11:15:28;;;;;;;9.55;8.13;;;31.20;43.00;;;;;;4975353;28;20034;-91
2023/06/10 11:18:20;;;;;;;13.35;8.95;;;31.20;42.80;;;;;;4983371;28;20387;-90
2023/06/10 11:20:49;;;;;;;16.17;9.07;;;31.30;42.80;;;;;;4984200;28;20042;-86
2023/06/10 11:23:27;;;;;;;13.52;9.13;;;31.40;42.80;;;;;;4956049;28;20034;-87
2023/06/10 11:26:14;;;;;;;13.68;8.90;;;31.50;42.80;;;;;;4980865;28;20309;-86
2023/06/10 11:28:42;;;;;;;13.05;8.52;;;31.50;42.70;;;;;;4968809;28;20525;-90
2023/06/10 11:31:19;;;;;;;9.70;8.50;;;31.60;42.70;;;;;;4997157;28;20034;-87
2023/06/10 11:33:47;;;;;;;11.60;7.88;;;31.60;42.70;;;;;;4981935;28;20076;-82
2023/06/10 11:36:13;;;;;;;14.35;8.60;;;31.60;42.80;;;;;;4977138;28;20282;-79
2023/06/10 11:38:48;;;;;;;16.35;9.50;;;31.60;42.80;;;;;;4977336;28;20050;-81
2023/06/10 11:41:15;;;;;;;13.65;8.95;;;31.70;42.80;;;;;;4975870;28;20405;-80
2023/06/10 11:43:46;;;;;;;15.07;8.13;;;31.80;42.80;;;;;;4979744;28;20050;-81
2023/06/10 11:46:19;;;;;;;11.90;8.70;;;31.80;42.70;;;;;;4976517;28;20100;-82
2023/06/10 11:48:55;;;;;;;17.27;9.10;;;32.00;42.60;;;;;;4979159;28;20046;-82
2023/06/10 11:51:22;;;;;;;14.65;10.05;;;32.30;42.40;;;;;;4971814;28;20372;-84
2023/06/10 11:53:52;;;;;;;11.30;8.88;;;32.50;42.00;;;;;;4994573;28;20034;-84
2023/06/10 11:56:26;;;;;;;13.65;9.98;;;32.60;41.90;;;;;;4980292;28;20046;-85
2023/06/10 11:59:07;;;;;;;14.05;9.82;;;32.60;41.80;;;;;;4977221;28;20046;-83
2023/06/10 12:01:36;;;;;;;12.00;8.95;;;32.50;41.80;;;;;;4976825;28;20195;-94
2023/06/10 12:04:17;;;;;;;16.35;9.82;;;32.40;42.00;;;;;;4977011;28;20540;-88
2023/06/10 12:06:51;;;;;;;13.73;9.23;;;32.30;42.20;;;;;;4974795;28;20062;-85
2023/06/10 12:09:22;;;;;;;15.23;8.88;;;32.10;42.30;;;;;;4970104;28;20047;-91
2023/06/10 12:12:02;;;;;;;16.70;10.18;;;32.00;42.50;;;;;;4973855;28;20049;-88
2023/06/10 12:14:53;;;;;;;14.98;8.57;;;31.90;42.60;;;;;;4977735;28;20125;-86
2023/06/10 12:17:33;;;;;;;14.07;10.00;;;32.10;42.50;;;;;;4972925;28;20166;-83
2023/06/10 12:20:01;;;;;;;13.52;10.23;;;32.10;42.40;;;;;;4962695;28;20607;-86
2023/06/10 12:22:35;;;;;;;16.13;10.65;;;32.20;42.50;;;;;;4978553;28;20031;-82
2023/06/10 12:25:08;;;;;;;14.02;9.60;;;32.10;42.40;;;;;;4969181;28;20358;-81
2023/06/10 12:27:40;;;;;;;14.82;8.77;;;32.00;42.50;;;;;;4975087;28;20057;-85
2023/06/10 12:30:24;;;;;;;13.10;9.80;;;32.00;42.50;;;;;;4980304;28;20057;-84
2023/06/10 12:32:52;;;;;;;14.38;9.65;;;32.10;42.50;;;;;;4972904;28;20038;-84
2023/06/10 12:35:30;;;;;;;12.63;9.48;;;32.20;42.30;;;;;;4970190;28;20042;-79
2023/06/10 12:38:06;;;;;;;;;;;32.30;42.30;;;;;;4977333;28;20445;-82
2023/06/10 12:40:35;;;;;;;16.75;9.35;;;32.30;42.30;;;;;;4981483;28;19913;-86
2023/06/10 12:43:04;;;;;;;14.30;9.63;;;32.20;42.40;;;;;;4995488;28;20360;-84
2023/06/10 12:45:39;;;;;;;13.63;10.00;;;32.10;42.60;;;;;;4978699;28;20042;-83
2023/06/10 12:48:12;;;;;;;13.48;9.13;;;32.10;42.80;;;;;;4974997;28;20086;-83
2023/06/10 12:50:40;;;;;;;12.75;8.82;;;32.10;42.90;;;;;;4975235;28;20048;-91
2023/06/10 12:53:07;;;;;;;11.80;9.30;;;32.00;43.10;;;;;;4979182;28;20074;-89
2023/06/10 12:55:33;;;;;;;14.27;9.77;;;32.10;43.20;;;;;;4976008;28;20030;-88